createdAt,value
2019-04-10T00:05:23.901Z,99.90
2019-04-10T00:07:53.933Z,99.90
2019-04-10T00:10:23.613Z,99.90
2019-04-10T00:12:54.105Z,99.90
2019-04-10T00:15:24.369Z,99.90
2019-04-10T00:17:55.590Z,99.90
2019-04-10T00:20:26.670Z,99.90
2019-04-10T00:22:56.178Z,99.90
2019-04-10T00:25:26.515Z,99.90
2019-04-10T00:27:56.548Z,99.90
2019-04-10T00:30:27.089Z,99.90
2019-04-10T00:32:56.522Z,99.90
2019-04-10T00:35:26.268Z,99.90
2019-04-10T00:37:55.955Z,99.90
2019-04-10T00:40:25.780Z,99.90
2019-04-10T00:42:57.051Z,99.90
2019-04-10T00:45:27.416Z,99.90
2019-04-10T00:47:57.181Z,99.90
2019-04-10T00:50:28.395Z,99.90
2019-04-10T00:52:58.760Z,99.90
2019-04-10T00:55:28.804Z,99.90
2019-04-10T00:57:58.612Z,99.90
2019-04-10T01:00:28.773Z,99.90
2019-04-10T01:02:58.840Z,99.90
2019-04-10T01:05:28.366Z,99.90
2019-04-10T01:07:58.142Z,99.90
2019-04-10T01:10:28.486Z,99.90
2019-04-10T01:12:58.743Z,99.90
2019-04-10T01:15:28.849Z,99.90
2019-04-10T01:17:59.010Z,99.90
2019-04-10T01:20:29.344Z,99.90
2019-04-10T01:22:59.373Z,99.90
2019-04-10T01:25:30.177Z,99.90
2019-04-10T01:28:00.540Z,99.90
2019-04-10T01:30:30.565Z,99.90
2019-04-10T01:33:00.658Z,99.90
2019-04-10T01:35:30.518Z,99.90
2019-04-10T01:38:02.430Z,99.90
2019-04-10T01:40:31.450Z,99.90
2019-04-10T01:43:08.236Z,99.90
2019-04-10T01:45:33.474Z,99.90
2019-04-10T01:48:03.752Z,99.90
2019-04-10T01:50:34.783Z,99.90
2019-04-10T01:53:04.254Z,99.90
2019-04-10T01:55:34.351Z,99.90
2019-04-10T01:58:08.494Z,99.90
2019-04-10T02:00:39.583Z,99.90
2019-04-10T02:03:09.810Z,99.90
2019-04-10T02:05:39.257Z,99.90
2019-04-10T02:08:12.753Z,99.90
2019-04-10T02:10:40.529Z,99.90
2019-04-10T02:13:11.441Z,99.90
2019-04-10T02:15:41.879Z,99.90
2019-04-10T02:18:11.462Z,99.90
2019-04-10T02:20:41.176Z,99.90
2019-04-10T02:23:10.700Z,99.90
2019-04-10T02:25:41.095Z,99.90
2019-04-10T02:28:11.063Z,99.90
2019-04-10T02:30:43.116Z,99.90
2019-04-10T02:33:13.793Z,99.90
2019-04-10T02:35:43.483Z,99.90
2019-04-10T02:38:32.584Z,99.90
2019-04-10T02:40:45.564Z,99.90
2019-04-10T02:43:16.147Z,99.90
2019-04-10T02:45:46.982Z,99.90
2019-04-10T02:48:17.066Z,99.90
2019-04-10T02:50:46.836Z,99.90
2019-04-10T02:53:16.278Z,99.90
2019-04-10T02:55:47.363Z,99.90
2019-04-10T02:58:18.757Z,99.90
2019-04-10T03:00:48.805Z,99.90
2019-04-10T03:03:20.122Z,99.90
2019-04-10T03:05:51.024Z,99.90
2019-04-10T03:08:38.539Z,99.90
2019-04-10T03:10:59.040Z,99.90
2019-04-10T03:13:23.926Z,99.90
2019-04-10T03:15:53.830Z,99.90
2019-04-10T03:18:23.618Z,99.90
2019-04-10T03:20:54.321Z,99.90
2019-04-10T03:23:23.772Z,99.90
2019-04-10T03:25:53.530Z,99.90
2019-04-10T03:28:23.218Z,99.90
2019-04-10T03:30:53.847Z,99.90
2019-04-10T03:33:47.103Z,99.90
2019-04-10T03:36:13.939Z,99.90
2019-04-10T03:38:55.347Z,99.90
2019-04-10T03:41:14.375Z,99.90
2019-04-10T03:43:43.830Z,99.90
2019-04-10T03:46:13.269Z,99.90
2019-04-10T03:48:42.649Z,99.90
2019-04-10T03:51:12.350Z,99.90
2019-04-10T03:53:42.617Z,99.90
2019-04-10T03:56:12.431Z,99.90
2019-04-10T03:58:42.669Z,99.90
2019-04-10T04:01:14.396Z,99.90
2019-04-10T04:03:45.142Z,99.90
2019-04-10T04:06:15.450Z,99.90
2019-04-10T04:08:45.889Z,99.90
2019-04-10T04:11:20.162Z,99.90
2019-04-10T04:13:50.060Z,99.90
2019-04-10T04:16:19.540Z,99.90
2019-04-10T04:18:49.225Z,99.90
2019-04-10T04:21:19.671Z,99.90
2019-04-10T04:23:49.116Z,99.90
2019-04-10T04:26:19.062Z,99.90
2019-04-10T04:28:49.415Z,99.90
2019-04-10T04:31:19.305Z,99.90
2019-04-10T04:33:49.456Z,99.90
2019-04-10T04:36:20.376Z,99.90
2019-04-10T04:38:51.398Z,99.90
2019-04-10T04:41:28.930Z,99.90
2019-04-10T04:43:58.995Z,99.90
2019-04-10T04:46:28.717Z,99.90
2019-04-10T04:48:58.107Z,99.90
2019-04-10T04:51:27.769Z,99.90
2019-04-10T04:53:57.439Z,99.90
2019-04-10T04:56:28.135Z,99.90
2019-04-10T04:58:57.649Z,99.90
2019-04-10T05:01:27.552Z,99.90
2019-04-10T05:03:58.236Z,99.90
2019-04-10T05:06:27.768Z,99.90
2019-04-10T05:08:57.766Z,99.90
2019-04-10T05:11:27.192Z,99.90
2019-04-10T05:13:57.298Z,99.90
2019-04-10T05:16:27.479Z,99.90
2019-04-10T05:18:57.441Z,99.90
2019-04-10T05:21:27.610Z,99.90
2019-04-10T05:23:57.526Z,99.90
2019-04-10T05:26:27.754Z,99.90
2019-04-10T05:28:57.711Z,99.90
2019-04-10T05:31:27.791Z,99.90
2019-04-10T05:33:57.471Z,99.90
2019-04-10T05:36:26.993Z,99.90
2019-04-10T05:38:57.613Z,99.90
2019-04-10T05:41:27.989Z,99.90
2019-04-10T05:43:58.527Z,99.90
2019-04-10T05:46:28.411Z,99.90
2019-04-10T05:48:58.146Z,99.90
2019-04-10T05:51:28.950Z,99.90
2019-04-10T05:54:04.676Z,99.90
2019-04-10T05:56:42.706Z,99.90
2019-04-10T05:59:13.598Z,99.90
2019-04-10T06:01:45.638Z,99.90
2019-04-10T06:04:15.332Z,99.90
2019-04-10T06:06:44.689Z,99.90
2019-04-10T06:09:14.323Z,99.90
2019-04-10T06:11:45.603Z,99.90
2019-04-10T06:14:15.747Z,99.90
2019-04-10T06:16:45.303Z,99.90
2019-04-10T06:19:15.723Z,99.90
2019-04-10T06:21:46.217Z,99.90
2019-04-10T06:24:16.230Z,99.90
2019-04-10T06:26:46.057Z,99.90
2019-04-10T06:29:15.597Z,99.90
2019-04-10T06:31:45.578Z,99.90
2019-04-10T06:34:17.560Z,99.90
2019-04-10T06:36:46.104Z,99.90
2019-04-10T06:39:16.436Z,99.90
2019-04-10T06:41:46.766Z,99.90
2019-04-10T06:44:17.383Z,99.90
2019-04-10T06:46:48.555Z,99.90
2019-04-10T06:49:18.410Z,99.90
2019-04-10T06:51:49.298Z,99.90
2019-04-10T06:54:18.802Z,99.90
2019-04-10T06:56:48.865Z,99.90
2019-04-10T06:59:18.644Z,99.90
2019-04-10T07:01:52.803Z,99.90
2019-04-10T07:04:24.219Z,99.90
2019-04-10T07:06:58.617Z,99.90
2019-04-10T07:09:25.389Z,99.90
2019-04-10T07:11:58.334Z,99.90
2019-04-10T07:14:24.979Z,99.90
2019-04-10T07:16:54.909Z,99.90
2019-04-10T07:19:24.850Z,99.90
2019-04-10T07:21:55.258Z,99.90
2019-04-10T07:24:25.037Z,99.90
2019-04-10T07:26:55.265Z,99.90
2019-04-10T07:29:27.681Z,99.90
2019-04-10T07:31:56.875Z,99.90
2019-04-10T07:34:29.739Z,99.90
2019-04-10T07:36:58.121Z,99.90
2019-04-10T07:39:30.390Z,99.90
2019-04-10T07:41:59.921Z,99.90
2019-04-10T07:44:29.354Z,99.90
2019-04-10T07:47:00.736Z,99.90
2019-04-10T07:49:31.423Z,99.90
2019-04-10T07:52:02.484Z,99.90
2019-04-10T07:54:33.097Z,99.90
2019-04-10T07:57:02.688Z,99.90
2019-04-10T07:59:33.315Z,99.90
2019-04-10T08:02:05.511Z,99.90
2019-04-10T08:04:35.318Z,99.90
2019-04-10T08:07:05.289Z,99.90
2019-04-10T08:09:35.617Z,99.90
2019-04-10T08:12:05.238Z,99.90
2019-04-10T08:14:35.736Z,99.90
2019-04-10T08:17:05.926Z,99.90
2019-04-10T08:19:36.990Z,99.90
2019-04-10T08:22:08.321Z,99.90
2019-04-10T08:24:38.665Z,99.90
2019-04-10T08:27:10.254Z,99.90
2019-04-10T08:29:41.257Z,99.90
2019-04-10T08:32:11.865Z,99.90
2019-04-10T08:34:42.123Z,99.90
2019-04-10T08:37:12.374Z,99.90
2019-04-10T08:39:45.743Z,99.90
2019-04-10T08:42:13.143Z,99.90
2019-04-10T08:44:42.589Z,99.90
2019-04-10T08:47:12.835Z,99.90
2019-04-10T08:49:43.246Z,99.90
2019-04-10T08:52:13.806Z,99.90
2019-04-10T08:54:44.623Z,99.90
2019-04-10T08:57:14.573Z,99.90
2019-04-10T08:59:44.518Z,99.90
2019-04-10T09:02:15.225Z,99.90
2019-04-10T09:04:44.905Z,99.90
2019-04-10T09:07:14.476Z,99.90
2019-04-10T09:09:44.228Z,99.90
2019-04-10T09:12:14.034Z,99.90
2019-04-10T09:14:43.797Z,99.90
2019-04-10T09:17:13.320Z,99.90
2019-04-10T09:19:42.683Z,99.90
2019-04-10T09:22:14.130Z,99.90
2019-04-10T09:24:44.619Z,99.90
2019-04-10T09:27:15.050Z,99.90
2019-04-10T09:29:44.597Z,99.90
2019-04-10T09:32:14.647Z,99.90
2019-04-10T09:34:46.436Z,99.90
2019-04-10T09:37:15.666Z,99.90
2019-04-10T09:39:45.128Z,99.90
2019-04-10T09:42:14.917Z,99.90
2019-04-10T09:44:44.698Z,99.90
2019-04-10T09:47:14.245Z,99.90
2019-04-10T09:49:46.730Z,99.90
2019-04-10T09:52:15.558Z,99.90
2019-04-10T09:54:44.972Z,99.90
2019-04-10T09:57:15.397Z,99.90
2019-04-10T09:59:46.200Z,99.90
2019-04-10T10:02:17.566Z,99.90
2019-04-10T10:04:48.082Z,99.90
2019-04-10T10:07:18.617Z,99.90
2019-04-10T10:09:49.252Z,99.90
2019-04-10T10:12:20.109Z,99.90
2019-04-10T10:14:49.690Z,99.90
2019-04-10T10:17:20.314Z,99.90
2019-04-10T10:19:50.199Z,99.90
2019-04-10T10:22:21.006Z,99.90
2019-04-10T10:24:51.003Z,99.90
2019-04-10T10:27:20.474Z,99.90
2019-04-10T10:29:53.082Z,99.90
2019-04-10T10:32:21.388Z,99.90
2019-04-10T10:34:51.181Z,99.90
2019-04-10T10:37:22.091Z,99.90
2019-04-10T10:39:52.766Z,99.90
2019-04-10T10:42:23.487Z,99.90
2019-04-10T10:44:52.988Z,99.90
2019-04-10T10:47:22.374Z,99.90
2019-04-10T10:49:52.648Z,99.90
2019-04-10T10:52:22.293Z,99.90
2019-04-10T10:54:51.850Z,99.90
2019-04-10T10:57:22.684Z,99.90
2019-04-10T10:59:53.550Z,99.90
2019-04-10T11:02:23.096Z,99.90
2019-04-10T11:04:53.862Z,99.90
2019-04-10T11:07:24.352Z,99.90
2019-04-10T11:09:54.406Z,99.90
2019-04-10T11:12:24.175Z,99.90
2019-04-10T11:14:54.034Z,99.90
2019-04-10T11:17:23.916Z,99.90
2019-04-10T11:19:53.356Z,99.90
2019-04-10T11:22:25.637Z,99.90
2019-04-10T11:24:55.686Z,99.90
2019-04-10T11:27:25.328Z,99.90
2019-04-10T11:29:55.073Z,99.90
2019-04-10T11:32:26.406Z,99.90
2019-04-10T11:34:56.648Z,99.90
2019-04-10T11:37:35.015Z,99.90
2019-04-10T11:39:58.593Z,99.90
2019-04-10T11:42:28.960Z,99.90
2019-04-10T11:44:59.481Z,99.90
2019-04-10T11:47:29.194Z,99.90
2019-04-10T11:50:01.598Z,99.90
2019-04-10T11:55:10.579Z,99.90
2019-04-10T11:57:33.143Z,97.60
2019-04-10T12:00:04.350Z,97.40
2019-04-10T12:02:34.585Z,98.80
2019-04-10T12:05:10.908Z,98.90
2019-04-10T12:08:01.911Z,97.40
2019-04-10T12:12:38.928Z,97.50
2019-04-10T12:15:08.617Z,97.40
2019-04-10T12:17:38.204Z,98.00
2019-04-10T12:20:08.899Z,97.60
2019-04-10T12:22:38.729Z,96.20
2019-04-10T12:25:08.305Z,96.10
2019-04-10T12:27:39.008Z,95.90
2019-04-10T12:30:09.272Z,98.30
2019-04-10T12:32:39.280Z,97.50
2019-04-10T12:35:08.850Z,94.90
2019-04-10T12:37:39.180Z,96.20
2019-04-10T12:40:09.855Z,95.00
2019-04-10T12:42:40.592Z,95.10
2019-04-10T12:45:11.544Z,96.10
2019-04-10T12:47:41.995Z,96.00
2019-04-10T12:50:12.149Z,94.50
2019-04-10T12:52:42.698Z,95.30
2019-04-10T12:55:12.643Z,95.00
2019-04-10T12:57:42.059Z,95.60
2019-04-10T13:00:15.979Z,94.80
2019-04-10T13:02:46.893Z,94.60
2019-04-10T13:05:16.807Z,92.90
2019-04-10T13:07:47.520Z,92.00
2019-04-10T13:10:18.325Z,91.80
2019-04-10T13:12:47.857Z,93.60
2019-04-10T13:15:17.437Z,91.90
2019-04-10T13:17:46.994Z,92.40
2019-04-10T13:20:17.654Z,92.70
2019-04-10T13:22:48.628Z,93.50
2019-04-10T13:25:18.480Z,93.80
2019-04-10T13:27:48.478Z,92.40
2019-04-10T13:30:18.749Z,91.20
2019-04-10T13:32:48.305Z,93.40
2019-04-10T13:35:18.016Z,91.60
2019-04-10T13:37:47.631Z,91.40
2019-04-10T13:40:17.416Z,90.60
2019-04-10T13:42:47.441Z,91.30
2019-04-10T13:45:19.390Z,91.90
2019-04-10T13:47:49.662Z,90.90
2019-04-10T13:50:19.583Z,90.90
2019-04-10T13:52:52.581Z,86.60
2019-04-10T13:55:22.203Z,89.10
2019-04-10T13:57:52.906Z,90.20
2019-04-10T14:00:35.623Z,90.00
2019-04-10T14:03:05.941Z,92.20
2019-04-10T14:05:35.416Z,91.40
2019-04-10T14:08:06.266Z,90.60
2019-04-10T14:10:38.512Z,89.10
2019-04-10T14:13:07.480Z,89.70
2019-04-10T14:15:37.417Z,90.00
2019-04-10T14:18:08.260Z,88.90
2019-04-10T14:20:37.887Z,91.30
2019-04-10T14:23:15.173Z,87.70
2019-04-10T14:26:02.498Z,85.70
2019-04-10T14:28:33.265Z,89.70
2019-04-10T14:31:07.657Z,90.10
2019-04-10T14:33:37.954Z,89.20
2019-04-10T14:36:07.627Z,90.40
2019-04-10T14:38:39.031Z,89.60
2019-04-10T14:41:09.440Z,91.20
2019-04-10T14:43:39.739Z,88.30
2019-04-10T14:46:12.369Z,90.70
2019-04-10T14:48:42.478Z,89.30
2019-04-10T14:51:12.764Z,91.30
2019-04-10T14:53:43.612Z,90.90
2019-04-10T14:56:13.709Z,90.90
2019-04-10T14:58:43.150Z,90.40
2019-04-10T15:01:13.661Z,90.50
2019-04-10T15:03:44.544Z,90.80
2019-04-10T15:06:15.339Z,86.90
2019-04-10T15:08:46.019Z,90.50
2019-04-10T15:11:16.262Z,91.00
2019-04-10T15:13:45.779Z,91.10
2019-04-10T15:16:16.690Z,88.80
2019-04-10T15:18:46.234Z,89.40
2019-04-10T15:21:15.694Z,90.50
2019-04-10T15:23:45.070Z,91.00
2019-04-10T15:26:15.488Z,91.50
2019-04-10T15:28:45.397Z,91.90
2019-04-10T15:31:15.215Z,90.00
2019-04-10T15:33:44.598Z,91.20
2019-04-10T15:36:14.073Z,91.30
2019-04-10T15:38:44.354Z,90.70
2019-04-10T15:41:14.680Z,90.70
2019-04-10T15:43:45.481Z,91.20
2019-04-10T15:46:15.053Z,91.30
2019-04-10T15:48:44.517Z,90.40
2019-04-10T15:51:14.182Z,90.40
2019-04-10T15:53:45.021Z,91.50
2019-04-10T15:56:15.890Z,91.30
2019-04-10T15:58:45.855Z,92.20
2019-04-10T16:01:18.588Z,92.30
2019-04-10T16:03:48.079Z,92.20
2019-04-10T16:06:17.857Z,92.20
2019-04-10T16:08:48.190Z,92.30
2019-04-10T16:11:36.209Z,91.20
2019-04-10T16:14:16.939Z,90.50
2019-04-10T16:16:54.944Z,92.30
2019-04-10T16:19:39.733Z,93.20
2019-04-10T16:22:25.871Z,92.30
2019-04-10T16:24:57.505Z,93.40
2019-04-10T16:27:27.069Z,92.00
2019-04-10T16:29:56.664Z,92.10
2019-04-10T16:32:26.643Z,92.40
2019-04-10T16:34:56.846Z,92.00
2019-04-10T16:37:26.476Z,93.20
2019-04-10T16:40:00.517Z,93.80
2019-04-10T16:42:27.721Z,92.10
2019-04-10T16:44:57.695Z,93.20
2019-04-10T16:47:28.264Z,93.40
2019-04-10T16:49:59.227Z,93.40
2019-04-10T16:52:29.190Z,93.10
2019-04-10T16:54:59.702Z,94.00
2019-04-10T16:57:29.581Z,93.60
2019-04-10T16:59:59.231Z,93.60
2019-04-10T17:02:28.698Z,94.50
2019-04-10T17:04:58.569Z,94.00
2019-04-10T17:07:28.117Z,93.40
2019-04-10T17:10:04.399Z,94.40
2019-04-10T17:12:29.634Z,94.50
2019-04-10T17:14:59.580Z,93.40
2019-04-10T17:17:30.471Z,94.70
2019-04-10T17:20:00.671Z,93.80
2019-04-10T17:22:37.331Z,93.90
2019-04-10T17:25:02.410Z,94.60
2019-04-10T17:27:32.071Z,94.70
2019-04-10T17:30:01.625Z,96.00
2019-04-10T17:32:31.465Z,96.00
2019-04-10T17:35:01.282Z,95.80
2019-04-10T17:37:31.854Z,95.40
2019-04-10T17:40:02.102Z,96.10
2019-04-10T17:42:32.461Z,95.00
2019-04-10T17:45:02.996Z,95.50
2019-04-10T17:47:33.401Z,96.10
2019-04-10T17:50:03.679Z,95.60
2019-04-10T17:52:35.706Z,96.20
2019-04-10T17:55:05.574Z,96.10
2019-04-10T17:57:38.904Z,96.70
2019-04-10T18:00:15.206Z,97.00
2019-04-10T18:02:44.708Z,97.00
2019-04-10T18:05:14.823Z,97.20
2019-04-10T18:07:44.285Z,97.70
2019-04-10T18:10:14.073Z,98.40
2019-04-10T18:12:43.951Z,97.80
2019-04-10T18:15:13.574Z,98.10
2019-04-10T18:17:43.546Z,96.90
2019-04-10T18:20:13.777Z,97.40
2019-04-10T18:22:44.849Z,97.50
2019-04-10T18:25:15.824Z,98.70
2019-04-10T18:27:46.860Z,98.10
2019-04-10T18:30:17.029Z,97.80
2019-04-10T18:32:47.557Z,98.00
2019-04-10T18:35:18.385Z,98.40
2019-04-10T18:38:23.699Z,98.30
2019-04-10T18:40:58.501Z,99.00
2019-04-10T18:43:24.342Z,99.50
2019-04-10T18:46:06.231Z,99.90
2019-04-10T18:48:26.971Z,99.80
2019-04-10T18:50:57.272Z,99.90
2019-04-10T18:53:26.841Z,99.90
2019-04-10T18:55:56.885Z,99.70
2019-04-10T18:58:29.684Z,99.80
2019-04-10T19:01:34.762Z,99.90
2019-04-10T19:04:12.523Z,99.90
2019-04-10T19:06:51.268Z,99.90
2019-04-10T19:09:27.346Z,99.90
2019-04-10T19:11:54.546Z,99.90
2019-04-10T19:14:24.759Z,99.90
2019-04-10T19:16:55.241Z,99.90
2019-04-10T19:19:25.984Z,99.90
2019-04-10T19:21:56.077Z,99.90
2019-04-10T19:24:28.064Z,99.90
2019-04-10T19:26:58.015Z,99.90
2019-04-10T19:29:27.700Z,99.90
2019-04-10T19:32:01.535Z,99.90
2019-04-10T19:34:31.684Z,99.90
2019-04-10T19:37:01.316Z,99.90
2019-04-10T19:39:30.686Z,99.90
2019-04-10T19:42:01.430Z,99.90
2019-04-10T19:44:31.093Z,99.90
2019-04-10T19:47:01.977Z,99.90
2019-04-10T19:49:32.830Z,99.90
2019-04-10T19:52:03.029Z,99.90
2019-04-10T19:54:33.234Z,99.90
2019-04-10T19:57:02.806Z,99.90
2019-04-10T19:59:32.157Z,99.90
2019-04-10T20:02:02.447Z,99.90
2019-04-10T20:04:32.520Z,99.90
2019-04-10T20:07:02.750Z,99.90
2019-04-10T20:09:32.642Z,99.90
2019-04-10T20:12:02.493Z,99.90
2019-04-10T20:14:32.599Z,99.90
2019-04-10T20:17:02.536Z,99.90
2019-04-10T20:19:32.755Z,99.90
2019-04-10T20:22:02.621Z,99.90
2019-04-10T20:24:32.612Z,99.90
2019-04-10T20:27:02.059Z,99.90
2019-04-10T20:29:31.505Z,99.90
2019-04-10T20:32:01.722Z,99.90
2019-04-10T20:34:31.626Z,99.90
2019-04-10T20:37:06.146Z,99.90
2019-04-10T20:39:32.152Z,99.90
2019-04-10T20:42:02.538Z,99.90
2019-04-10T20:44:32.583Z,99.90
2019-04-10T20:47:02.538Z,99.90
2019-04-10T20:49:32.401Z,99.90
2019-04-10T20:52:02.153Z,99.90
2019-04-10T20:54:31.581Z,99.90
2019-04-10T20:57:01.190Z,99.90
2019-04-10T20:59:31.120Z,99.90
2019-04-10T21:02:00.600Z,99.90
2019-04-10T21:04:30.029Z,99.90
2019-04-10T21:07:00.727Z,99.90
2019-04-10T21:09:30.187Z,99.90
2019-04-10T21:12:06.763Z,99.90
2019-04-10T21:14:31.760Z,99.90
2019-04-10T21:17:02.319Z,99.90
2019-04-10T21:19:33.342Z,99.90
2019-04-10T21:22:03.787Z,99.90
2019-04-10T21:24:33.609Z,99.90
2019-04-10T21:27:03.586Z,99.90
2019-04-10T21:29:50.547Z,99.90
2019-04-10T21:32:34.587Z,99.90
2019-04-10T21:35:05.621Z,99.90
2019-04-10T21:37:35.496Z,99.90
2019-04-10T21:40:05.999Z,99.90
2019-04-10T21:42:36.983Z,99.90
2019-04-10T21:45:07.413Z,99.90
2019-04-10T21:47:37.646Z,99.90
2019-04-10T21:50:08.859Z,99.90
2019-04-10T21:52:39.283Z,99.90
2019-04-10T21:55:08.766Z,99.90
2019-04-10T21:57:38.443Z,99.90
2019-04-10T22:00:10.091Z,99.90
2019-04-10T22:02:40.044Z,99.90
2019-04-10T22:05:10.216Z,99.90
2019-04-10T22:07:57.174Z,99.90
2019-04-10T22:10:32.212Z,99.90
2019-04-10T22:13:02.164Z,99.90
2019-04-10T22:15:57.515Z,99.90
2019-04-10T22:18:27.464Z,99.90
2019-04-10T22:20:57.227Z,99.90
2019-04-10T22:23:28.681Z,99.90
2019-04-10T22:25:58.501Z,99.90
2019-04-10T22:28:28.766Z,99.90
2019-04-10T22:30:58.563Z,99.90
2019-04-10T22:33:28.314Z,99.90
2019-04-10T22:35:58.230Z,99.90
2019-04-10T22:38:27.620Z,99.90
2019-04-10T22:40:57.991Z,99.90
2019-04-10T22:43:28.081Z,99.90
2019-04-10T22:45:57.589Z,99.90
2019-04-10T22:48:27.288Z,99.90
2019-04-10T22:50:56.846Z,99.90
2019-04-10T22:53:26.298Z,99.90
2019-04-10T22:55:56.389Z,99.90
2019-04-10T22:58:26.799Z,99.90
2019-04-10T23:00:56.297Z,99.90
2019-04-10T23:03:26.456Z,99.90
2019-04-10T23:05:56.496Z,99.90
2019-04-10T23:08:27.299Z,99.90
2019-04-10T23:10:57.358Z,99.90
2019-04-10T23:13:27.113Z,99.90
2019-04-10T23:15:57.741Z,99.90
2019-04-10T23:18:27.723Z,99.90
2019-04-10T23:20:58.502Z,99.90
2019-04-10T23:23:28.052Z,99.90
2019-04-10T23:25:58.560Z,99.90
2019-04-10T23:28:28.002Z,99.90
2019-04-10T23:30:57.504Z,99.90
2019-04-10T23:33:28.131Z,99.90
2019-04-10T23:35:58.053Z,99.90
2019-04-10T23:38:27.818Z,99.90
2019-04-10T23:40:57.355Z,99.90
2019-04-10T23:43:27.383Z,99.90
2019-04-10T23:45:57.840Z,99.90
2019-04-10T23:48:27.280Z,99.90
2019-04-10T23:50:56.693Z,99.90
2019-04-10T23:53:26.672Z,99.90
2019-04-10T23:55:56.619Z,99.90
2019-04-10T23:58:26.376Z,99.90
